sensor_id;sensor_type;location;lat;lon;timestamp;pressure;altitude;pressure_sealevel;temperature
74043;BMP280;62384;53.600;10.040;2022-07-23T00:00:33;101354.56;;;17.00
74043;BMP280;62384;53.600;10.040;2022-07-23T00:02:59;101360.78;;;17.00
74043;BMP280;62384;53.600;10.040;2022-07-23T00:05:24;101339.03;;;16.97
74043;BMP280;62384;53.600;10.040;2022-07-23T00:07:49;101329.75;;;16.94
74043;BMP280;62384;53.600;10.040;2022-07-23T00:10:15;101335.19;;;16.94
74043;BMP280;62384;53.600;10.040;2022-07-23T00:12:40;101339.81;;;16.90
74043;BMP280;62384;53.600;10.040;2022-07-23T00:15:07;101332.06;;;16.92
74043;BMP280;62384;53.600;10.040;2022-07-23T00:17:32;101322.78;;;16.90
74043;BMP280;62384;53.600;10.040;2022-07-23T00:19:58;101327.81;;;16.91
74043;BMP280;62384;53.600;10.040;2022-07-23T00:22:25;101325.09;;;16.91
74043;BMP280;62384;53.600;10.040;2022-07-23T00:24:52;101330.91;;;16.93
74043;BMP280;62384;53.600;10.040;2022-07-23T00:27:18;101346.03;;;16.91
74043;BMP280;62384;53.600;10.040;2022-07-23T00:29:43;101341.00;;;16.93
74043;BMP280;62384;53.600;10.040;2022-07-23T00:32:08;101334.00;;;16.88
74043;BMP280;62384;53.600;10.040;2022-07-23T00:34:34;101318.44;;;16.71
74043;BMP280;62384;53.600;10.040;2022-07-23T00:36:59;101340.97;;;16.86
74043;BMP280;62384;53.600;10.040;2022-07-23T00:39:25;101339.81;;;16.83
74043;BMP280;62384;53.600;10.040;2022-07-23T00:41:50;101337.44;;;16.78
74043;BMP280;62384;53.600;10.040;2022-07-23T00:44:25;101337.84;;;16.84
74043;BMP280;62384;53.600;10.040;2022-07-23T00:46:52;101331.22;;;16.74
74043;BMP280;62384;53.600;10.040;2022-07-23T00:49:23;101323.88;;;16.71
74043;BMP280;62384;53.600;10.040;2022-07-23T00:51:49;101317.63;;;16.67
74043;BMP280;62384;53.600;10.040;2022-07-23T00:54:16;101320.00;;;16.72
74043;BMP280;62384;53.600;10.040;2022-07-23T00:56:43;101309.91;;;16.66
74043;BMP280;62384;53.600;10.040;2022-07-23T00:59:08;101305.25;;;16.63
74043;BMP280;62384;53.600;10.040;2022-07-23T01:01:34;101297.09;;;16.63
74043;BMP280;62384;53.600;10.040;2022-07-23T01:03:59;101301.38;;;16.60
74043;BMP280;62384;53.600;10.040;2022-07-23T01:06:24;101290.88;;;16.55
74043;BMP280;62384;53.600;10.040;2022-07-23T01:08:50;101298.66;;;16.60
74043;BMP280;62384;53.600;10.040;2022-07-23T01:11:17;101284.31;;;16.56
74043;BMP280;62384;53.600;10.040;2022-07-23T01:13:43;101272.69;;;16.56
74043;BMP280;62384;53.600;10.040;2022-07-23T01:16:09;101274.63;;;16.55
74043;BMP280;62384;53.600;10.040;2022-07-23T01:18:34;101273.84;;;16.55
74043;BMP280;62384;53.600;10.040;2022-07-23T01:20:59;101249.03;;;16.46
74043;BMP280;62384;53.600;10.040;2022-07-23T01:23:24;101265.31;;;16.53
74043;BMP280;62384;53.600;10.040;2022-07-23T01:25:53;101259.44;;;16.47
74043;BMP280;62384;53.600;10.040;2022-07-23T01:28:19;101257.13;;;16.42
74043;BMP280;62384;53.600;10.040;2022-07-23T01:30:47;101254.41;;;16.42
74043;BMP280;62384;53.600;10.040;2022-07-23T01:33:12;101254.41;;;16.39
74043;BMP280;62384;53.600;10.040;2022-07-23T01:35:37;101250.91;;;16.42
74043;BMP280;62384;53.600;10.040;2022-07-23T01:38:03;101253.66;;;16.45
74043;BMP280;62384;53.600;10.040;2022-07-23T01:40:28;101254.44;;;16.46
74043;BMP280;62384;53.600;10.040;2022-07-23T01:42:53;101254.41;;;16.42
74043;BMP280;62384;53.600;10.040;2022-07-23T01:45:19;101243.22;;;16.44
74043;BMP280;62384;53.600;10.040;2022-07-23T01:47:44;101240.50;;;16.40
74043;BMP280;62384;53.600;10.040;2022-07-23T01:50:10;101239.28;;;16.41
74043;BMP280;62384;53.600;10.040;2022-07-23T01:52:35;101255.97;;;16.40
74043;BMP280;62384;53.600;10.040;2022-07-23T01:55:00;101243.19;;;16.40
74043;BMP280;62384;53.600;10.040;2022-07-23T01:57:26;101244.34;;;16.39
74043;BMP280;62384;53.600;10.040;2022-07-23T01:59:51;101227.31;;;16.42
74043;BMP280;62384;53.600;10.040;2022-07-23T02:02:16;101224.97;;;16.41
74043;BMP280;62384;53.600;10.040;2022-07-23T02:04:42;101217.59;;;16.38
74043;BMP280;62384;53.600;10.040;2022-07-23T02:07:07;101207.56;;;16.42
74043;BMP280;62384;53.600;10.040;2022-07-23T02:09:32;101218.38;;;16.38
74043;BMP280;62384;53.600;10.040;2022-07-23T02:11:58;101206.75;;;16.38
74043;BMP280;62384;53.600;10.040;2022-07-23T02:14:25;101212.97;;;16.38
74043;BMP280;62384;53.600;10.040;2022-07-23T02:16:51;101206.38;;;16.32
74043;BMP280;62384;53.600;10.040;2022-07-23T02:19:16;101209.47;;;16.41
74043;BMP280;62384;53.600;10.040;2022-07-23T02:21:41;101218.78;;;16.37
74043;BMP280;62384;53.600;10.040;2022-07-23T02:24:07;101218.38;;;16.35
74043;BMP280;62384;53.600;10.040;2022-07-23T02:26:32;101211.78;;;16.32
74043;BMP280;62384;53.600;10.040;2022-07-23T02:29:00;101206.75;;;16.38
74043;BMP280;62384;53.600;10.040;2022-07-23T02:31:25;101205.56;;;16.32
74043;BMP280;62384;53.600;10.040;2022-07-23T02:33:50;101205.56;;;16.32
74043;BMP280;62384;53.600;10.040;2022-07-23T02:36:16;101206.34;;;16.25
74043;BMP280;62384;53.600;10.040;2022-07-23T02:38:41;101178.44;;;16.21
74043;BMP280;62384;53.600;10.040;2022-07-23T02:41:07;101195.84;;;16.17
74043;BMP280;62384;53.600;10.040;2022-07-23T02:43:32;101185.78;;;16.13
74043;BMP280;62384;53.600;10.040;2022-07-23T02:45:57;101173.38;;;16.09
74043;BMP280;62384;53.600;10.040;2022-07-23T02:48:22;101160.94;;;16.04
74043;BMP280;62384;53.600;10.040;2022-07-23T02:50:48;101150.50;;;15.99
74043;BMP280;62384;53.600;10.040;2022-07-23T02:53:13;101147.78;;;15.99
74043;BMP280;62384;53.600;10.040;2022-07-23T02:55:38;101153.19;;;15.96
74043;BMP280;62384;53.600;10.040;2022-07-23T02:58:04;101125.72;;;15.90
74043;BMP280;62384;53.600;10.040;2022-07-23T03:00:29;101138.50;;;15.93
74043;BMP280;62384;53.600;10.040;2022-07-23T03:02:55;101132.25;;;15.89
74043;BMP280;62384;53.600;10.040;2022-07-23T03:05:20;101110.94;;;15.74
74043;BMP280;62384;53.600;10.040;2022-07-23T03:07:45;101126.09;;;15.92
74043;BMP280;62384;53.600;10.040;2022-07-23T03:10:10;101116.84;;;15.97
74043;BMP280;62384;53.600;10.040;2022-07-23T03:12:36;101119.53;;;15.97
74043;BMP280;62384;53.600;10.040;2022-07-23T03:15:01;101124.56;;;15.98
74043;BMP280;62384;53.600;10.040;2022-07-23T03:17:26;101127.69;;;16.00
74043;BMP280;62384;53.600;10.040;2022-07-23T03:19:52;101119.53;;;15.97
74043;BMP280;62384;53.600;10.040;2022-07-23T03:22:17;101102.13;;;15.91
74043;BMP280;62384;53.600;10.040;2022-07-23T03:24:42;101122.25;;;16.00
74043;BMP280;62384;53.600;10.040;2022-07-23T03:27:24;101115.66;;;15.98
74043;BMP280;62384;53.600;10.040;2022-07-23T03:29:51;101125.72;;;16.04
74043;BMP280;62384;53.600;10.040;2022-07-23T03:32:16;101115.28;;;15.99
74043;BMP280;62384;53.600;10.040;2022-07-23T03:34:42;101106.78;;;16.01
74043;BMP280;62384;53.600;10.040;2022-07-23T03:37:07;101102.53;;;16.00
74043;BMP280;62384;53.600;10.040;2022-07-23T03:39:32;101112.19;;;16.04
74043;BMP280;62384;53.600;10.040;2022-07-23T03:41:58;101106.41;;;15.99
74043;BMP280;62384;53.600;10.040;2022-07-23T03:44:23;101102.09;;;15.94
74043;BMP280;62384;53.600;10.040;2022-07-23T03:46:49;101085.47;;;15.92
74043;BMP280;62384;53.600;10.040;2022-07-23T03:49:14;101106.00;;;15.93
74043;BMP280;62384;53.600;10.040;2022-07-23T03:51:39;101105.22;;;15.93
74043;BMP280;62384;53.600;10.040;2022-07-23T03:54:04;101102.88;;;15.95
74043;BMP280;62384;53.600;10.040;2022-07-23T03:56:30;101095.91;;;15.90
74043;BMP280;62384;53.600;10.040;2022-07-23T03:58:55;101109.47;;;15.90
74043;BMP280;62384;53.600;10.040;2022-07-23T04:01:20;101099.41;;;15.91
74043;BMP280;62384;53.600;10.040;2022-07-23T04:03:46;101106.34;;;15.92
74043;BMP280;62384;53.600;10.040;2022-07-23T04:06:11;101119.53;;;15.97
74043;BMP280;62384;53.600;10.040;2022-07-23T04:08:37;101131.91;;;16.01
74043;BMP280;62384;53.600;10.040;2022-07-23T04:11:02;101126.50;;;16.05
74043;BMP280;62384;53.600;10.040;2022-07-23T04:13:27;101123.06;;;16.08
74043;BMP280;62384;53.600;10.040;2022-07-23T04:15:53;101120.34;;;16.15
74043;BMP280;62384;53.600;10.040;2022-07-23T04:18:18;101121.56;;;16.28
74043;BMP280;62384;53.600;10.040;2022-07-23T04:20:44;101137.47;;;16.33
74043;BMP280;62384;53.600;10.040;2022-07-23T04:23:10;101130.47;;;16.32
74043;BMP280;62384;53.600;10.040;2022-07-23T04:25:35;101145.63;;;16.44
74043;BMP280;62384;53.600;10.040;2022-07-23T04:28:01;101147.16;;;16.45
74043;BMP280;62384;53.600;10.040;2022-07-23T04:30:26;101140.56;;;16.42
74043;BMP280;62384;53.600;10.040;2022-07-23T04:32:52;101133.59;;;16.27
74043;BMP280;62384;53.600;10.040;2022-07-23T04:35:17;101113.81;;;16.20
74043;BMP280;62384;53.600;10.040;2022-07-23T04:37:42;101115.00;;;16.29
74043;BMP280;62384;53.600;10.040;2022-07-23T04:40:08;101121.59;;;16.35
74043;BMP280;62384;53.600;10.040;2022-07-23T04:42:33;101120.78;;;16.31
74043;BMP280;62384;53.600;10.040;2022-07-23T04:44:59;101112.66;;;16.24
74043;BMP280;62384;53.600;10.040;2022-07-23T04:47:24;101113.78;;;16.16
74043;BMP280;62384;53.600;10.040;2022-07-23T04:49:49;101121.56;;;16.28
74043;BMP280;62384;53.600;10.040;2022-07-23T04:52:16;101114.59;;;16.20
74043;BMP280;62384;53.600;10.040;2022-07-23T04:55:04;101097.53;;;16.09
74043;BMP280;62384;53.600;10.040;2022-07-23T04:57:30;101109.91;;;16.03
74043;BMP280;62384;53.600;10.040;2022-07-23T04:59:55;101101.34;;;15.94
74043;BMP280;62384;53.600;10.040;2022-07-23T05:02:20;101062.97;;;15.74
74043;BMP280;62384;53.600;10.040;2022-07-23T05:04:46;101109.03;;;15.88
74043;BMP280;62384;53.600;10.040;2022-07-23T05:07:11;101102.47;;;15.86
74043;BMP280;62384;53.600;10.040;2022-07-23T05:09:36;101093.59;;;15.96
74043;BMP280;62384;53.600;10.040;2022-07-23T05:12:02;101086.94;;;15.76
74043;BMP280;62384;53.600;10.040;2022-07-23T05:14:27;101104.44;;;15.99
74043;BMP280;62384;53.600;10.040;2022-07-23T05:16:53;101107.50;;;15.94
74043;BMP280;62384;53.600;10.040;2022-07-23T05:19:18;101110.63;;;15.96
74043;BMP280;62384;53.600;10.040;2022-07-23T05:21:43;101100.59;;;16.00
74043;BMP280;62384;53.600;10.040;2022-07-23T05:24:09;101107.19;;;16.06
74043;BMP280;62384;53.600;10.040;2022-07-23T05:26:34;101106.81;;;16.08
74043;BMP280;62384;53.600;10.040;2022-07-23T05:28:59;101125.00;;;16.07
74043;BMP280;62384;53.600;10.040;2022-07-23T05:31:25;101125.38;;;16.02
74043;BMP280;62384;53.600;10.040;2022-07-23T05:33:50;101126.16;;;16.06
74043;BMP280;62384;53.600;10.040;2022-07-23T05:36:15;101143.63;;;16.20
74043;BMP280;62384;53.600;10.040;2022-07-23T05:38:40;101147.88;;;16.21
74043;BMP280;62384;53.600;10.040;2022-07-23T05:41:06;101149.44;;;16.29
74043;BMP280;62384;53.600;10.040;2022-07-23T05:43:31;101177.34;;;16.29
74043;BMP280;62384;53.600;10.040;2022-07-23T05:45:57;101181.63;;;16.34
74043;BMP280;62384;53.600;10.040;2022-07-23T05:48:22;101194.41;;;16.40
74043;BMP280;62384;53.600;10.040;2022-07-23T05:50:47;101206.75;;;16.38
74043;BMP280;62384;53.600;10.040;2022-07-23T05:53:13;101203.69;;;16.39
74043;BMP280;62384;53.600;10.040;2022-07-23T05:55:39;101220.41;;;16.55
74043;BMP280;62384;53.600;10.040;2022-07-23T05:58:04;101226.59;;;16.56
74043;BMP280;62384;53.600;10.040;2022-07-23T06:00:30;101230.47;;;16.55
74043;BMP280;62384;53.600;10.040;2022-07-23T06:02:55;101230.09;;;16.56
74043;BMP280;62384;53.600;10.040;2022-07-23T06:05:22;101237.41;;;16.49
74043;BMP280;62384;53.600;10.040;2022-07-23T06:07:48;101218.38;;;16.42
74043;BMP280;62384;53.600;10.040;2022-07-23T06:10:16;101236.25;;;16.53
74043;BMP280;62384;53.600;10.040;2022-07-23T06:12:42;101219.25;;;16.60
74043;BMP280;62384;53.600;10.040;2022-07-23T06:15:08;101221.22;;;16.66
74043;BMP280;62384;53.600;10.040;2022-07-23T06:17:34;101218.50;;;16.73
74043;BMP280;62384;53.600;10.040;2022-07-23T06:19:59;101224.28;;;16.68
74043;BMP280;62384;53.600;10.040;2022-07-23T06:22:24;101225.06;;;16.69
74043;BMP280;62384;53.600;10.040;2022-07-23T06:24:50;101190.56;;;16.59
74043;BMP280;62384;53.600;10.040;2022-07-23T06:27:17;101201.06;;;16.74
74043;BMP280;62384;53.600;10.040;2022-07-23T06:29:42;101208.81;;;16.83
74043;BMP280;62384;53.600;10.040;2022-07-23T06:32:08;101199.94;;;16.86
74043;BMP280;62384;53.600;10.040;2022-07-23T06:34:36;101231.72;;;16.96
74043;BMP280;62384;53.600;10.040;2022-07-23T06:37:01;101224.34;;;17.00
74043;BMP280;62384;53.600;10.040;2022-07-23T06:39:27;101238.69;;;17.18
74043;BMP280;62384;53.600;10.040;2022-07-23T06:41:52;101244.91;;;17.05
74043;BMP280;62384;53.600;10.040;2022-07-23T06:44:18;101250.31;;;17.01
74043;BMP280;62384;53.600;10.040;2022-07-23T06:46:43;101246.47;;;17.02
74043;BMP280;62384;53.600;10.040;2022-07-23T06:49:09;101263.50;;;16.95
74043;BMP280;62384;53.600;10.040;2022-07-23T06:51:34;101273.16;;;17.07
74043;BMP280;62384;53.600;10.040;2022-07-23T06:53:59;101244.44;;;16.78
74043;BMP280;62384;53.600;10.040;2022-07-23T06:56:25;101248.38;;;17.09
74043;BMP280;62384;53.600;10.040;2022-07-23T06:58:50;101237.16;;;16.96
74043;BMP280;62384;53.600;10.040;2022-07-23T07:01:16;101266.97;;;16.92
74043;BMP280;62384;53.600;10.040;2022-07-23T07:03:41;101271.63;;;17.02
74043;BMP280;62384;53.600;10.040;2022-07-23T07:06:06;101272.38;;;16.92
74043;BMP280;62384;53.600;10.040;2022-07-23T07:08:32;101289.81;;;16.88
74043;BMP280;62384;53.600;10.040;2022-07-23T07:11:00;101272.00;;;16.83
74043;BMP280;62384;53.600;10.040;2022-07-23T07:13:25;101286.75;;;16.89
74043;BMP280;62384;53.600;10.040;2022-07-23T07:15:51;101284.03;;;16.89
74043;BMP280;62384;53.600;10.040;2022-07-23T07:18:16;101281.34;;;16.96
74043;BMP280;62384;53.600;10.040;2022-07-23T07:20:41;101290.63;;;16.95
74043;BMP280;62384;53.600;10.040;2022-07-23T07:23:07;101259.94;;;16.74
74043;BMP280;62384;53.600;10.040;2022-07-23T07:25:32;101247.94;;;16.75
74043;BMP280;62384;53.600;10.040;2022-07-23T07:27:57;101183.59;;;16.51
74043;BMP280;62384;53.600;10.040;2022-07-23T07:30:23;101151.81;;;16.41
74043;BMP280;62384;53.600;10.040;2022-07-23T07:32:48;101156.78;;;16.28
74043;BMP280;62384;53.600;10.040;2022-07-23T07:35:13;101156.88;;;16.46
74043;BMP280;62384;53.600;10.040;2022-07-23T07:37:39;101170.44;;;16.60
74043;BMP280;62384;53.600;10.040;2022-07-23T07:40:04;101178.19;;;16.65
74043;BMP280;62384;53.600;10.040;2022-07-23T07:42:30;101204.59;;;17.03
74043;BMP280;62384;53.600;10.040;2022-07-23T07:44:57;101199.97;;;16.96
74043;BMP280;62384;53.600;10.040;2022-07-23T07:47:22;101215.44;;;17.38
74043;BMP280;62384;53.600;10.040;2022-07-23T07:49:47;101236.75;;;17.43
74043;BMP280;62384;53.600;10.040;2022-07-23T07:52:13;101253.44;;;17.21
74043;BMP280;62384;53.600;10.040;2022-07-23T07:54:38;101262.34;;;17.42
74043;BMP280;62384;53.600;10.040;2022-07-23T07:57:03;101265.84;;;17.32
74043;BMP280;62384;53.600;10.040;2022-07-23T07:59:29;101284.84;;;17.53
74043;BMP280;62384;53.600;10.040;2022-07-23T08:01:54;101300.75;;;17.58
74043;BMP280;62384;53.600;10.040;2022-07-23T08:04:20;101315.91;;;17.56
74043;BMP280;62384;53.600;10.040;2022-07-23T08:06:45;101332.53;;;17.86
74043;BMP280;62384;53.600;10.040;2022-07-23T08:09:10;101335.25;;;18.04
74043;BMP280;62384;53.600;10.040;2022-07-23T08:11:35;101347.31;;;17.96
74043;BMP280;62384;53.600;10.040;2022-07-23T08:14:01;101347.72;;;17.80
74043;BMP280;62384;53.600;10.040;2022-07-23T08:16:26;101348.47;;;17.84
74043;BMP280;62384;53.600;10.040;2022-07-23T08:18:51;101323.25;;;17.45
74043;BMP280;62384;53.600;10.040;2022-07-23T08:21:17;101263.16;;;17.25
74043;BMP280;62384;53.600;10.040;2022-07-23T08:23:42;101193.72;;;16.89
74043;BMP280;62384;53.600;10.040;2022-07-23T08:26:08;101177.41;;;16.68
74043;BMP280;62384;53.600;10.040;2022-07-23T08:28:33;101175.50;;;16.79
74043;BMP280;62384;53.600;10.040;2022-07-23T08:30:59;101172.03;;;16.96
74043;BMP280;62384;53.600;10.040;2022-07-23T08:33:25;101183.25;;;16.80
74043;BMP280;62384;53.600;10.040;2022-07-23T08:35:51;101213.09;;;16.91
74043;BMP280;62384;53.600;10.040;2022-07-23T08:38:20;101240.25;;;17.02
74043;BMP280;62384;53.600;10.040;2022-07-23T08:40:54;101268.19;;;17.20
74043;BMP280;62384;53.600;10.040;2022-07-23T08:43:22;101283.69;;;17.19
74043;BMP280;62384;53.600;10.040;2022-07-23T08:45:51;101282.91;;;17.33
74043;BMP280;62384;53.600;10.040;2022-07-23T08:48:21;101321.34;;;17.56
74043;BMP280;62384;53.600;10.040;2022-07-23T08:50:49;101324.41;;;17.72
74043;BMP280;62384;53.600;10.040;2022-07-23T08:53:16;101368.63;;;17.41
74043;BMP280;62384;53.600;10.040;2022-07-23T08:55:55;101351.59;;;17.79
74043;BMP280;62384;53.600;10.040;2022-07-23T08:58:21;101386.50;;;17.87
74043;BMP280;62384;53.600;10.040;2022-07-23T09:00:47;101388.38;;;18.29
74043;BMP280;62384;53.600;10.040;2022-07-23T09:03:22;101421.00;;;18.33
74043;BMP280;62384;53.600;10.040;2022-07-23T09:05:50;101447.41;;;18.39
74043;BMP280;62384;53.600;10.040;2022-07-23T09:08:18;101456.66;;;18.80
74043;BMP280;62384;53.600;10.040;2022-07-23T09:10:48;101489.50;;;19.25
74043;BMP280;62384;53.600;10.040;2022-07-23T09:13:40;101481.03;;;19.05
74043;BMP280;62384;53.600;10.040;2022-07-23T09:16:11;101493.03;;;19.15
74043;BMP280;62384;53.600;10.040;2022-07-23T09:19:03;101492.19;;;19.28
74043;BMP280;62384;53.600;10.040;2022-07-23T09:21:30;101500.00;;;19.30
74043;BMP280;62384;53.600;10.040;2022-07-23T09:26:45;101514.75;;;19.32
74043;BMP280;62384;53.600;10.040;2022-07-23T09:29:22;101499.69;;;19.83
74043;BMP280;62384;53.600;10.040;2022-07-23T09:32:01;101501.84;;;19.50
74043;BMP280;62384;53.600;10.040;2022-07-23T09:34:35;101493.84;;;19.08
74043;BMP280;62384;53.600;10.040;2022-07-23T09:37:19;101482.09;;;19.29
74043;BMP280;62384;53.600;10.040;2022-07-23T09:39:46;101478.34;;;18.98
74043;BMP280;62384;53.600;10.040;2022-07-23T09:42:20;101473.50;;;19.37
74043;BMP280;62384;53.600;10.040;2022-07-23T09:44:48;101458.56;;;18.83
74043;BMP280;62384;53.600;10.040;2022-07-23T09:47:15;101476.03;;;18.93
74043;BMP280;62384;53.600;10.040;2022-07-23T09:49:40;101461.69;;;18.86
74043;BMP280;62384;53.600;10.040;2022-07-23T09:52:29;101463.97;;;18.98
74043;BMP280;62384;53.600;10.040;2022-07-23T09:55:03;101459.72;;;18.82
74043;BMP280;62384;53.600;10.040;2022-07-23T09:57:31;101432.97;;;18.67
74043;BMP280;62384;53.600;10.040;2022-07-23T10:00:00;101446.13;;;18.79
74043;BMP280;62384;53.600;10.040;2022-07-23T10:02:27;101460.56;;;18.65
74043;BMP280;62384;53.600;10.040;2022-07-23T10:04:54;101471.88;;;18.53
74043;BMP280;62384;53.600;10.040;2022-07-23T10:07:22;101475.75;;;18.63
74043;BMP280;62384;53.600;10.040;2022-07-23T10:09:50;101471.09;;;18.42
74043;BMP280;62384;53.600;10.040;2022-07-23T10:12:18;101467.22;;;18.43
74043;BMP280;62384;53.600;10.040;2022-07-23T10:14:47;101449.34;;;18.53
74043;BMP280;62384;53.600;10.040;2022-07-23T10:17:13;101452.84;;;18.53
74043;BMP280;62384;53.600;10.040;2022-07-23T10:19:41;101436.53;;;18.39
74043;BMP280;62384;53.600;10.040;2022-07-23T10:22:14;101438.88;;;18.48
74043;BMP280;62384;53.600;10.040;2022-07-23T10:24:59;101442.31;;;18.52
74043;BMP280;62384;53.600;10.040;2022-07-23T10:35:37;101538.28;;;20.66
74043;BMP280;62384;53.600;10.040;2022-07-23T10:38:18;101538.50;;;20.82
74043;BMP280;62384;53.600;10.040;2022-07-23T10:41:00;101577.03;;;20.47
74043;BMP280;62384;53.600;10.040;2022-07-23T10:43:26;101599.94;;;20.12
74043;BMP280;62384;53.600;10.040;2022-07-23T10:45:52;101588.75;;;19.96
74043;BMP280;62384;53.600;10.040;2022-07-23T10:51:12;101567.31;;;19.98
74043;BMP280;62384;53.600;10.040;2022-07-23T10:56:16;101551.66;;;20.13
74043;BMP280;62384;53.600;10.040;2022-07-23T10:58:49;101567.94;;;20.20
74043;BMP280;62384;53.600;10.040;2022-07-23T11:03:58;101542.03;;;19.94
74043;BMP280;62384;53.600;10.040;2022-07-23T11:11:48;101507.97;;;19.58
74043;BMP280;62384;53.600;10.040;2022-07-23T11:14:14;101513.97;;;19.32
74043;BMP280;62384;53.600;10.040;2022-07-23T11:16:47;101498.44;;;19.29
74043;BMP280;62384;53.600;10.040;2022-07-23T11:19:13;101501.63;;;19.13
74043;BMP280;62384;53.600;10.040;2022-07-23T11:21:40;101500.03;;;19.19
74043;BMP280;62384;53.600;10.040;2022-07-23T11:26:45;101486.38;;;19.33
74043;BMP280;62384;53.600;10.040;2022-07-23T11:32:07;101498.41;;;19.32
74043;BMP280;62384;53.600;10.040;2022-07-23T11:34:44;101520.28;;;19.87
74043;BMP280;62384;53.600;10.040;2022-07-23T11:37:12;101522.94;;;20.38
74043;BMP280;62384;53.600;10.040;2022-07-23T11:39:57;101576.50;;;20.66
74043;BMP280;62384;53.600;10.040;2022-07-23T11:42:23;101559.78;;;20.16
74043;BMP280;62384;53.600;10.040;2022-07-23T11:44:49;101571.25;;;19.94
74043;BMP280;62384;53.600;10.040;2022-07-23T11:47:15;101550.97;;;19.95
74043;BMP280;62384;53.600;10.040;2022-07-23T11:49:52;101573.75;;;20.22
74043;BMP280;62384;53.600;10.040;2022-07-23T11:52:18;101588.91;;;21.08
74043;BMP280;62384;53.600;10.040;2022-07-23T11:55:08;101605.28;;;23.42
74043;BMP280;62384;53.600;10.040;2022-07-23T11:58:04;101699.72;;;23.93
74043;BMP280;62384;53.600;10.040;2022-07-23T12:00:31;101686.47;;;22.97
74043;BMP280;62384;53.600;10.040;2022-07-23T12:03:02;101672.44;;;21.69
74043;BMP280;62384;53.600;10.040;2022-07-23T12:05:31;101638.44;;;21.10
74043;BMP280;62384;53.600;10.040;2022-07-23T12:07:58;101628.94;;;20.88
74043;BMP280;62384;53.600;10.040;2022-07-23T12:15:18;101613.69;;;20.49
74043;BMP280;62384;53.600;10.040;2022-07-23T12:17:47;101609.66;;;20.17
74043;BMP280;62384;53.600;10.040;2022-07-23T12:20:21;101614.00;;;20.58
74043;BMP280;62384;53.600;10.040;2022-07-23T12:22:48;101597.31;;;20.49
74043;BMP280;62384;53.600;10.040;2022-07-23T12:25:19;101630.75;;;20.57
74043;BMP280;62384;53.600;10.040;2022-07-23T12:27:46;101617.69;;;20.34
74043;BMP280;62384;53.600;10.040;2022-07-23T12:33:04;101624.91;;;20.58
74043;BMP280;62384;53.600;10.040;2022-07-23T12:35:33;101639.66;;;20.17
74043;BMP280;62384;53.600;10.040;2022-07-23T12:38:01;101658.31;;;20.25
74043;BMP280;62384;53.600;10.040;2022-07-23T12:40:30;101656.06;;;20.10
74043;BMP280;62384;53.600;10.040;2022-07-23T12:43:05;101660.47;;;20.96
74043;BMP280;62384;53.600;10.040;2022-07-23T12:45:44;101656.34;;;21.78
74043;BMP280;62384;53.600;10.040;2022-07-23T12:48:16;101673.06;;;21.20
74043;BMP280;62384;53.600;10.040;2022-07-23T12:50:43;101645.31;;;20.84
74043;BMP280;62384;53.600;10.040;2022-07-23T12:53:18;101668.25;;;20.53
74043;BMP280;62384;53.600;10.040;2022-07-23T12:55:46;101658.44;;;20.55
74043;BMP280;62384;53.600;10.040;2022-07-23T12:58:19;101655.22;;;20.20
74043;BMP280;62384;53.600;10.040;2022-07-23T13:05:47;101692.78;;;21.68
74043;BMP280;62384;53.600;10.040;2022-07-23T13:08:12;101693.09;;;21.43
74043;BMP280;62384;53.600;10.040;2022-07-23T13:10:38;101695.06;;;21.43
74043;BMP280;62384;53.600;10.040;2022-07-23T13:13:10;101681.16;;;20.90
74043;BMP280;62384;53.600;10.040;2022-07-23T13:15:36;101681.13;;;20.93
74043;BMP280;62384;53.600;10.040;2022-07-23T13:18:01;101694.94;;;20.75
74043;BMP280;62384;53.600;10.040;2022-07-23T13:20:26;101686.16;;;20.98
74043;BMP280;62384;53.600;10.040;2022-07-23T13:22:52;101690.84;;;21.35
74043;BMP280;62384;53.600;10.040;2022-07-23T13:25:18;101695.44;;;21.08
74043;BMP280;62384;53.600;10.040;2022-07-23T13:27:44;101697.22;;;20.80
74043;BMP280;62384;53.600;10.040;2022-07-23T13:30:10;101669.44;;;20.48
74043;BMP280;62384;53.600;10.040;2022-07-23T13:32:36;101668.94;;;20.60
74043;BMP280;62384;53.600;10.040;2022-07-23T13:35:01;101661.00;;;20.73
74043;BMP280;62384;53.600;10.040;2022-07-23T13:37:27;101684.31;;;20.37
74043;BMP280;62384;53.600;10.040;2022-07-23T13:39:52;101673.84;;;20.28
74043;BMP280;62384;53.600;10.040;2022-07-23T13:42:17;101677.16;;;19.95
74043;BMP280;62384;53.600;10.040;2022-07-23T13:44:43;101685.34;;;19.95
74043;BMP280;62384;53.600;10.040;2022-07-23T13:47:08;101662.50;;;19.64
74043;BMP280;62384;53.600;10.040;2022-07-23T13:49:33;101663.97;;;19.87
74043;BMP280;62384;53.600;10.040;2022-07-23T13:51:59;101668.66;;;19.83
74043;BMP280;62384;53.600;10.040;2022-07-23T13:54:24;101676.41;;;19.91
74043;BMP280;62384;53.600;10.040;2022-07-23T13:56:50;101670.97;;;19.80
74043;BMP280;62384;53.600;10.040;2022-07-23T13:59:16;101668.50;;;20.11
74043;BMP280;62384;53.600;10.040;2022-07-23T14:01:44;101665.41;;;20.05
74043;BMP280;62384;53.600;10.040;2022-07-23T14:04:09;101690.38;;;20.62
74043;BMP280;62384;53.600;10.040;2022-07-23T14:06:34;101634.72;;;19.94
74043;BMP280;62384;53.600;10.040;2022-07-23T14:09:00;101672.06;;;19.97
74043;BMP280;62384;53.600;10.040;2022-07-23T14:11:25;101666.25;;;19.95
74043;BMP280;62384;53.600;10.040;2022-07-23T14:13:51;101655.63;;;20.15
74043;BMP280;62384;53.600;10.040;2022-07-23T14:16:16;101663.44;;;20.16
74043;BMP280;62384;53.600;10.040;2022-07-23T14:18:42;101663.28;;;20.30
74043;BMP280;62384;53.600;10.040;2022-07-23T14:21:07;101679.06;;;20.60
74043;BMP280;62384;53.600;10.040;2022-07-23T14:23:32;101714.22;;;20.54
74043;BMP280;62384;53.600;10.040;2022-07-23T14:25:58;101708.00;;;20.47